createdAt,value
2022-07-26T00:01:38.666Z,1.40
2022-07-26T00:04:05.427Z,2.35
2022-07-26T00:06:32.020Z,1.83
2022-07-26T00:08:58.618Z,1.83
2022-07-26T00:11:25.713Z,1.83
2022-07-26T00:13:52.364Z,1.70
2022-07-26T00:16:19.478Z,1.52
2022-07-26T00:18:47.457Z,1.77
2022-07-26T00:21:14.137Z,1.60
2022-07-26T00:23:40.723Z,1.67
2022-07-26T00:26:07.512Z,1.80
2022-07-26T00:28:34.072Z,2.22
2022-07-26T00:31:00.811Z,1.95
2022-07-26T00:33:27.408Z,1.70
2022-07-26T00:35:53.950Z,2.00
2022-07-26T00:38:20.534Z,2.00
2022-07-26T00:40:47.125Z,1.90
2022-07-26T00:43:13.721Z,1.70
2022-07-26T00:45:40.367Z,1.80
2022-07-26T00:48:06.992Z,1.63
2022-07-26T00:50:33.663Z,1.70
2022-07-26T00:53:01.006Z,2.20
2022-07-26T00:55:27.782Z,1.55
2022-07-26T00:57:54.466Z,1.48
2022-07-26T01:00:27.701Z,1.70
2022-07-26T01:02:55.350Z,1.80
2022-07-26T01:05:23.097Z,1.50
2022-07-26T01:07:49.961Z,1.63
2022-07-26T01:10:16.750Z,1.60
2022-07-26T01:12:43.366Z,1.35
2022-07-26T01:15:11.655Z,1.67
2022-07-26T01:17:38.675Z,1.70
2022-07-26T01:20:07.335Z,1.88
2022-07-26T01:22:33.871Z,1.55
2022-07-26T01:25:00.400Z,1.40
2022-07-26T01:27:32.036Z,1.77
2022-07-26T01:30:00.582Z,1.52
2022-07-26T01:32:27.369Z,1.63
2022-07-26T01:34:53.911Z,1.77
2022-07-26T01:37:20.458Z,1.80
2022-07-26T01:39:46.998Z,1.63
2022-07-26T01:42:13.614Z,1.60
2022-07-26T01:44:40.604Z,1.60
2022-07-26T01:47:07.173Z,1.80
2022-07-26T01:49:33.712Z,1.70
2022-07-26T01:52:00.367Z,1.73
2022-07-26T01:54:27.070Z,1.70
2022-07-26T01:56:53.713Z,1.42
2022-07-26T01:59:20.245Z,1.58
2022-07-26T02:01:46.969Z,1.80
2022-07-26T02:04:33.612Z,1.50
2022-07-26T02:07:00.266Z,1.60
2022-07-26T02:09:27.864Z,2.47
2022-07-26T02:11:58.140Z,1.63
2022-07-26T02:14:28.017Z,1.80
2022-07-26T02:16:59.900Z,1.73
2022-07-26T02:19:28.037Z,1.60
2022-07-26T02:21:55.122Z,2.17
2022-07-26T02:24:22.210Z,1.58
2022-07-26T02:26:48.811Z,1.60
2022-07-26T02:29:15.442Z,2.17
2022-07-26T02:31:42.052Z,1.90
2022-07-26T02:34:15.179Z,1.70
2022-07-26T02:36:41.877Z,2.20
2022-07-26T02:39:08.518Z,1.80
2022-07-26T02:41:35.134Z,1.80
2022-07-26T02:44:01.717Z,1.85
2022-07-26T02:46:28.485Z,1.83
2022-07-26T02:48:55.317Z,1.67
2022-07-26T02:51:22.149Z,2.05
2022-07-26T02:53:48.701Z,1.95
2022-07-26T02:56:15.242Z,2.17
2022-07-26T02:58:41.992Z,2.10
2022-07-26T03:01:08.769Z,2.00
2022-07-26T03:03:36.425Z,1.85
2022-07-26T03:06:03.474Z,2.22
2022-07-26T03:08:30.038Z,1.90
2022-07-26T03:10:56.606Z,2.10
2022-07-26T03:13:23.152Z,2.42
2022-07-26T03:15:49.806Z,1.90
2022-07-26T03:18:16.434Z,2.35
2022-07-26T03:20:43.035Z,2.10
2022-07-26T03:23:09.581Z,2.38
2022-07-26T03:25:37.610Z,2.15
2022-07-26T03:28:05.041Z,2.17
2022-07-26T03:30:31.861Z,2.55
2022-07-26T03:32:58.496Z,2.22
2022-07-26T03:35:25.480Z,2.20
2022-07-26T03:37:52.649Z,1.90
2022-07-26T03:40:19.371Z,2.25
2022-07-26T03:42:46.681Z,2.65
2022-07-26T03:45:14.667Z,2.47
2022-07-26T03:47:42.135Z,2.40
2022-07-26T03:50:09.035Z,2.40
2022-07-26T03:52:35.535Z,2.22
2022-07-26T03:55:22.306Z,2.15
2022-07-26T03:57:49.176Z,2.65
2022-07-26T04:00:15.876Z,2.72
2022-07-26T04:02:42.502Z,2.60
2022-07-26T04:05:09.585Z,2.15
2022-07-26T04:07:52.814Z,2.28
2022-07-26T04:10:21.232Z,2.58
2022-07-26T04:12:47.958Z,2.92
2022-07-26T04:15:16.841Z,2.58
2022-07-26T04:17:43.662Z,2.20
2022-07-26T04:20:11.358Z,2.40
2022-07-26T04:22:38.988Z,2.60
2022-07-26T04:25:06.748Z,2.67
2022-07-26T04:27:34.161Z,3.97
2022-07-26T04:30:00.759Z,3.13
2022-07-26T04:32:27.753Z,2.40
2022-07-26T04:34:54.348Z,2.08
2022-07-26T04:37:20.848Z,2.45
2022-07-26T04:39:51.656Z,2.55
2022-07-26T04:42:21.124Z,2.35
2022-07-26T04:44:47.666Z,2.78
2022-07-26T04:47:14.214Z,2.88
2022-07-26T04:49:40.781Z,2.90
2022-07-26T04:52:07.393Z,2.72
2022-07-26T04:54:33.930Z,2.83
2022-07-26T04:57:00.543Z,3.00
2022-07-26T04:59:27.059Z,2.80
2022-07-26T05:01:53.683Z,3.53
2022-07-26T05:04:20.320Z,3.10
2022-07-26T05:06:46.873Z,2.72
2022-07-26T05:09:13.470Z,2.85
2022-07-26T05:11:40.060Z,3.50
2022-07-26T05:14:06.957Z,2.95
2022-07-26T05:16:33.736Z,2.60
2022-07-26T05:19:05.757Z,3.30
2022-07-26T05:21:32.288Z,3.60
2022-07-26T05:23:58.831Z,3.28
2022-07-26T05:26:25.600Z,2.97
2022-07-26T05:28:52.107Z,2.85
2022-07-26T05:31:18.683Z,3.30
2022-07-26T05:33:45.346Z,3.17
2022-07-26T05:36:11.926Z,3.45
2022-07-26T05:38:38.576Z,3.30
2022-07-26T05:41:05.496Z,3.25
2022-07-26T05:43:41.581Z,3.60
2022-07-26T05:46:09.975Z,3.00
2022-07-26T05:48:37.144Z,3.50
2022-07-26T05:51:04.012Z,3.15
2022-07-26T05:53:30.588Z,3.38
2022-07-26T05:55:57.124Z,4.00
2022-07-26T05:58:23.894Z,3.10
2022-07-26T06:00:50.453Z,3.05
2022-07-26T06:03:22.892Z,3.20
2022-07-26T06:05:51.039Z,3.40
2022-07-26T06:08:18.657Z,3.20
2022-07-26T06:10:46.121Z,3.70
2022-07-26T06:13:12.996Z,3.33
2022-07-26T06:15:39.628Z,3.50
2022-07-26T06:18:06.689Z,3.08
2022-07-26T06:20:33.678Z,3.33
2022-07-26T06:23:00.693Z,3.50
2022-07-26T06:25:27.500Z,4.05
2022-07-26T06:27:53.996Z,3.90
2022-07-26T06:30:20.536Z,4.22
2022-07-26T06:32:47.219Z,3.95
2022-07-26T06:35:14.924Z,4.13
2022-07-26T06:37:42.907Z,3.25
2022-07-26T06:40:10.470Z,3.53
2022-07-26T06:42:37.582Z,3.47
2022-07-26T06:45:04.820Z,3.90
2022-07-26T06:47:31.357Z,3.30
2022-07-26T06:49:57.939Z,3.33
2022-07-26T06:52:24.529Z,4.15
2022-07-26T06:54:51.137Z,4.00
2022-07-26T06:57:17.786Z,4.30
2022-07-26T06:59:44.410Z,3.50
2022-07-26T07:02:11.022Z,4.00
2022-07-26T07:04:37.645Z,4.35
2022-07-26T07:07:06.012Z,4.32
2022-07-26T07:09:33.111Z,4.45
2022-07-26T07:12:08.426Z,4.20
2022-07-26T07:14:37.297Z,4.18
2022-07-26T07:17:03.957Z,3.38
2022-07-26T07:19:39.814Z,3.72
2022-07-26T07:22:11.396Z,3.58
2022-07-26T07:24:38.748Z,3.85
2022-07-26T07:27:05.652Z,4.53
2022-07-26T07:29:33.600Z,3.72
2022-07-26T07:32:00.263Z,4.05
2022-07-26T07:34:30.136Z,4.00
2022-07-26T07:36:57.546Z,3.88
2022-07-26T07:39:24.204Z,4.15
2022-07-26T07:42:01.364Z,3.78
2022-07-26T07:44:28.176Z,4.88
2022-07-26T07:46:54.805Z,4.53
2022-07-26T07:49:22.276Z,4.05
2022-07-26T07:51:48.900Z,3.55
2022-07-26T07:54:16.046Z,4.15
2022-07-26T07:56:43.337Z,3.83
2022-07-26T07:59:10.527Z,3.97
2022-07-26T08:01:40.599Z,4.45
2022-07-26T08:04:08.597Z,4.07
2022-07-26T08:06:35.543Z,4.55
2022-07-26T08:09:03.919Z,4.82
2022-07-26T08:11:33.829Z,3.42
2022-07-26T08:14:00.882Z,3.67
2022-07-26T08:16:27.505Z,3.30
2022-07-26T08:18:57.306Z,3.55
2022-07-26T08:21:28.130Z,3.83
2022-07-26T08:23:55.803Z,3.50
2022-07-26T08:26:22.363Z,3.08
2022-07-26T08:28:58.405Z,3.63
2022-07-26T08:31:28.194Z,2.78
2022-07-26T08:33:54.932Z,4.57
2022-07-26T08:36:21.459Z,3.47
2022-07-26T08:38:48.546Z,3.38
2022-07-26T08:41:16.968Z,3.22
2022-07-26T08:43:51.103Z,3.08
2022-07-26T08:46:26.861Z,2.72
2022-07-26T08:48:55.679Z,4.10
2022-07-26T08:51:24.322Z,3.92
2022-07-26T08:53:59.099Z,3.40
2022-07-26T08:56:30.532Z,3.80
2022-07-26T08:58:57.238Z,3.50
2022-07-26T09:01:23.876Z,3.40
2022-07-26T09:03:50.585Z,3.10
2022-07-26T09:06:19.975Z,2.88
2022-07-26T09:08:48.584Z,3.17
2022-07-26T09:11:33.434Z,3.08
2022-07-26T09:14:02.535Z,2.80
2022-07-26T09:16:37.272Z,2.80
2022-07-26T09:19:22.688Z,3.67
2022-07-26T09:21:50.204Z,3.00
2022-07-26T09:24:38.036Z,3.50
2022-07-26T09:27:06.810Z,3.72
2022-07-26T09:29:44.502Z,3.50
2022-07-26T09:32:19.254Z,3.20
2022-07-26T09:34:53.431Z,3.00
2022-07-26T09:37:34.062Z,2.90
2022-07-26T09:40:02.876Z,2.15
2022-07-26T09:42:30.083Z,1.88
2022-07-26T09:44:58.100Z,2.10
2022-07-26T09:47:38.135Z,2.63
2022-07-26T09:50:15.174Z,2.08
2022-07-26T09:52:58.025Z,1.80
2022-07-26T09:55:24.569Z,1.65
2022-07-26T09:57:53.234Z,1.92
2022-07-26T10:00:19.912Z,1.75
2022-07-26T10:02:46.583Z,1.98
2022-07-26T10:05:13.155Z,2.60
2022-07-26T10:07:39.844Z,2.35
2022-07-26T10:10:13.947Z,2.20
2022-07-26T10:12:44.113Z,2.97
2022-07-26T10:15:33.390Z,2.97
2022-07-26T10:18:00.066Z,2.85
2022-07-26T10:20:41.898Z,2.75
2022-07-26T10:23:37.188Z,2.55
2022-07-26T10:26:06.135Z,2.50
2022-07-26T10:28:36.454Z,2.00
2022-07-26T10:31:29.797Z,2.60
2022-07-26T10:33:59.114Z,2.50
2022-07-26T10:36:35.898Z,1.70
2022-07-26T10:39:08.409Z,1.75
2022-07-26T10:41:44.064Z,1.30
2022-07-26T10:44:14.956Z,1.77
2022-07-26T10:47:04.636Z,1.98
2022-07-26T10:49:45.300Z,2.28
2022-07-26T10:52:23.166Z,1.70
2022-07-26T10:55:04.718Z,1.83
2022-07-26T10:57:40.096Z,1.70
2022-07-26T11:00:26.585Z,1.80
2022-07-26T11:02:57.666Z,2.15
2022-07-26T11:08:10.581Z,1.60
2022-07-26T11:10:42.123Z,1.45
2022-07-26T11:13:17.156Z,1.75
2022-07-26T11:15:46.935Z,1.27
2022-07-26T11:18:19.228Z,1.20
2022-07-26T11:20:47.426Z,1.10
2022-07-26T11:23:28.920Z,1.00
2022-07-26T11:26:15.455Z,1.17
2022-07-26T11:29:04.013Z,0.98
2022-07-26T11:31:51.934Z,1.00
2022-07-26T11:34:27.441Z,0.90
2022-07-26T11:36:56.768Z,0.90
2022-07-26T11:39:34.368Z,1.00
2022-07-26T11:42:09.417Z,0.93
2022-07-26T11:44:36.396Z,0.82
2022-07-26T11:47:13.551Z,0.70
2022-07-26T11:50:00.893Z,0.82
2022-07-26T11:52:31.779Z,0.70
2022-07-26T11:54:58.666Z,0.75
2022-07-26T11:57:32.158Z,0.70
2022-07-26T11:59:59.999Z,0.98
2022-07-26T12:02:26.768Z,0.98
2022-07-26T12:05:30.677Z,0.80
2022-07-26T12:08:02.778Z,0.70
2022-07-26T12:10:29.913Z,0.70
2022-07-26T12:13:13.331Z,0.70
2022-07-26T12:15:48.101Z,0.70
2022-07-26T12:18:30.245Z,0.82
2022-07-26T12:21:05.111Z,0.73
2022-07-26T12:23:46.532Z,0.50
2022-07-26T12:26:23.439Z,0.57
2022-07-26T12:28:50.489Z,0.60
2022-07-26T12:31:30.171Z,0.57
2022-07-26T12:33:57.127Z,0.77
2022-07-26T12:36:28.139Z,0.60
2022-07-26T12:38:59.935Z,0.70
2022-07-26T12:41:39.967Z,0.80
2022-07-26T12:44:11.327Z,0.50
2022-07-26T12:46:38.710Z,0.57
2022-07-26T12:49:05.527Z,0.80
2022-07-26T12:51:32.270Z,0.57
2022-07-26T12:53:59.251Z,0.80
2022-07-26T12:56:25.797Z,0.70
2022-07-26T12:58:53.906Z,0.88
2022-07-26T13:01:20.570Z,0.60
2022-07-26T13:03:47.227Z,0.60
2022-07-26T13:06:13.865Z,0.60
2022-07-26T13:08:40.612Z,0.52
2022-07-26T13:11:07.246Z,0.80
2022-07-26T13:13:33.797Z,0.60
2022-07-26T13:16:00.316Z,0.70
2022-07-26T13:18:26.925Z,0.85
2022-07-26T13:20:53.602Z,1.00
2022-07-26T13:23:22.076Z,0.80
2022-07-26T13:25:53.365Z,0.70
2022-07-26T13:28:21.152Z,0.73
2022-07-26T13:30:47.737Z,0.73
2022-07-26T13:33:14.494Z,0.90
2022-07-26T13:35:42.435Z,0.50
2022-07-26T13:38:09.328Z,1.00
2022-07-26T13:40:36.172Z,0.90
2022-07-26T13:43:03.420Z,0.90
2022-07-26T13:45:30.163Z,1.20
2022-07-26T13:47:59.996Z,0.70
2022-07-26T13:50:27.794Z,0.60
2022-07-26T13:52:57.329Z,0.60
2022-07-26T13:55:24.935Z,0.98
2022-07-26T13:57:57.218Z,0.70
2022-07-26T14:00:29.185Z,0.80
2022-07-26T14:05:24.390Z,0.65
2022-07-26T14:07:50.989Z,0.68
2022-07-26T14:10:18.127Z,1.13
2022-07-26T14:12:44.784Z,0.80
2022-07-26T14:15:18.035Z,0.82
2022-07-26T14:17:47.242Z,1.13
2022-07-26T14:20:14.704Z,1.05
2022-07-26T14:22:41.263Z,0.90
2022-07-26T14:25:08.413Z,1.05
2022-07-26T14:27:34.935Z,1.02
2022-07-26T14:30:01.923Z,0.90
2022-07-26T14:32:28.438Z,0.90
2022-07-26T14:34:55.099Z,0.68
2022-07-26T14:37:43.649Z,0.70
2022-07-26T14:40:08.843Z,0.75
2022-07-26T14:42:35.455Z,0.50
2022-07-26T14:45:02.049Z,1.05
2022-07-26T14:47:28.554Z,0.60
2022-07-26T14:49:55.141Z,0.70
2022-07-26T14:52:22.225Z,0.73
2022-07-26T14:54:48.762Z,0.50
2022-07-26T14:57:15.335Z,0.38
2022-07-26T14:59:41.901Z,0.55
2022-07-26T15:02:09.837Z,1.00
2022-07-26T15:04:36.437Z,0.70
2022-07-26T15:07:03.047Z,0.52
2022-07-26T15:09:29.788Z,0.52
2022-07-26T15:11:56.372Z,0.40
2022-07-26T15:14:22.899Z,0.50
2022-07-26T15:16:49.446Z,0.70
2022-07-26T15:19:16.061Z,0.60
2022-07-26T15:21:43.860Z,0.77
2022-07-26T15:24:11.602Z,0.68
2022-07-26T15:26:38.601Z,0.77
2022-07-26T15:29:05.187Z,0.63
2022-07-26T15:31:37.357Z,0.73
2022-07-26T15:34:07.720Z,0.57
2022-07-26T15:36:34.553Z,0.70
2022-07-26T15:39:15.605Z,0.68
2022-07-26T15:41:43.045Z,0.70
2022-07-26T15:44:10.379Z,0.60
2022-07-26T15:46:39.047Z,0.88
2022-07-26T15:49:07.413Z,0.50
2022-07-26T15:51:34.468Z,0.60
2022-07-26T15:54:02.762Z,1.00
2022-07-26T15:56:29.324Z,0.60
2022-07-26T15:58:55.952Z,0.80
2022-07-26T16:01:22.529Z,0.60
2022-07-26T16:03:49.164Z,0.70
2022-07-26T16:06:15.715Z,0.80
2022-07-26T16:08:58.966Z,0.80
2022-07-26T16:11:29.611Z,0.68
2022-07-26T16:14:01.298Z,0.70
2022-07-26T16:16:29.688Z,0.77
2022-07-26T16:18:56.474Z,1.08
2022-07-26T16:21:23.080Z,1.02
2022-07-26T16:23:50.942Z,1.08
2022-07-26T16:26:18.185Z,1.00
2022-07-26T16:28:45.115Z,0.70
2022-07-26T16:31:11.873Z,0.80
2022-07-26T16:33:39.158Z,0.90
2022-07-26T16:36:13.973Z,0.80
2022-07-26T16:38:40.579Z,1.20
2022-07-26T16:41:07.173Z,1.15
2022-07-26T16:43:34.536Z,0.80
2022-07-26T16:46:01.182Z,0.60
2022-07-26T16:48:27.896Z,1.08
2022-07-26T16:50:54.664Z,0.70
2022-07-26T16:53:21.189Z,0.98
2022-07-26T16:55:49.579Z,1.10
2022-07-26T16:58:16.528Z,1.08
2022-07-26T17:00:43.160Z,0.90
2022-07-26T17:03:09.846Z,0.90
2022-07-26T17:05:36.438Z,1.10
2022-07-26T17:08:02.999Z,1.15
2022-07-26T17:10:29.559Z,1.08
2022-07-26T17:12:56.079Z,1.35
2022-07-26T17:15:22.687Z,0.88
2022-07-26T17:17:49.660Z,1.45
2022-07-26T17:20:16.515Z,1.30
2022-07-26T17:22:43.297Z,1.10
2022-07-26T17:25:10.123Z,1.20
2022-07-26T17:27:36.735Z,1.50
2022-07-26T17:30:07.193Z,1.20
2022-07-26T17:32:34.451Z,1.60
2022-07-26T17:35:01.183Z,1.30
2022-07-26T17:37:27.685Z,1.45
2022-07-26T17:39:55.377Z,1.85
2022-07-26T17:42:24.065Z,1.45
2022-07-26T17:44:51.458Z,1.30
2022-07-26T17:47:29.148Z,2.03
2022-07-26T17:52:48.124Z,1.30
2022-07-26T17:55:15.046Z,1.65
2022-07-26T17:57:42.352Z,1.33
2022-07-26T18:00:09.604Z,1.33
2022-07-26T18:02:36.214Z,1.50
2022-07-26T18:05:03.255Z,1.40
2022-07-26T18:07:30.083Z,1.48
2022-07-26T18:09:56.949Z,1.90
2022-07-26T18:12:23.552Z,1.67
2022-07-26T18:14:50.133Z,1.77
2022-07-26T18:17:16.687Z,2.22
2022-07-26T18:19:43.343Z,1.35
2022-07-26T18:22:09.854Z,2.05
2022-07-26T18:24:36.436Z,2.45
2022-07-26T18:27:03.014Z,1.60
2022-07-26T18:29:29.802Z,1.65
2022-07-26T18:32:00.083Z,2.25
2022-07-26T18:34:27.008Z,1.77
2022-07-26T18:36:54.038Z,1.80
2022-07-26T18:39:20.672Z,2.15
2022-07-26T18:41:47.271Z,1.73
2022-07-26T18:44:13.812Z,1.75
2022-07-26T18:46:40.497Z,1.70
2022-07-26T18:49:07.358Z,1.70
2022-07-26T18:51:34.231Z,1.65
2022-07-26T18:54:00.834Z,2.03
2022-07-26T18:56:27.432Z,1.75
2022-07-26T18:58:53.977Z,1.70
2022-07-26T19:01:20.602Z,2.78
2022-07-26T19:03:47.292Z,2.08
2022-07-26T19:06:14.005Z,1.70
2022-07-26T19:08:40.678Z,1.75
2022-07-26T19:11:07.225Z,1.92
2022-07-26T19:13:34.012Z,1.98
2022-07-26T19:16:00.606Z,2.30
2022-07-26T19:18:27.212Z,2.08
2022-07-26T19:20:53.743Z,2.10
2022-07-26T19:23:20.956Z,2.20
2022-07-26T19:25:47.599Z,1.98
2022-07-26T19:28:14.649Z,1.92
2022-07-26T19:30:42.036Z,1.90
2022-07-26T19:33:08.762Z,2.03
2022-07-26T19:35:35.681Z,2.35
2022-07-26T19:38:02.207Z,2.67
2022-07-26T19:40:30.201Z,1.77
2022-07-26T19:42:56.746Z,2.00
2022-07-26T19:45:23.288Z,1.77
2022-07-26T19:47:50.023Z,1.75
2022-07-26T19:50:16.602Z,2.30
2022-07-26T19:52:43.100Z,1.95
2022-07-26T19:55:10.050Z,2.00
2022-07-26T19:57:36.738Z,1.58
2022-07-26T20:00:07.368Z,2.10
2022-07-26T20:02:41.063Z,2.22
2022-07-26T20:05:11.527Z,2.20
2022-07-26T20:07:38.496Z,1.60
2022-07-26T20:10:05.771Z,1.92
2022-07-26T20:12:35.317Z,1.75
2022-07-26T20:15:02.251Z,1.75
2022-07-26T20:17:33.150Z,1.95
2022-07-26T20:19:59.805Z,1.45
2022-07-26T20:22:26.389Z,2.05
2022-07-26T20:24:56.066Z,1.75
2022-07-26T20:27:23.864Z,1.60
2022-07-26T20:29:51.318Z,1.42
2022-07-26T20:32:18.126Z,2.03
2022-07-26T20:34:44.670Z,1.50
2022-07-26T20:37:11.274Z,1.58
2022-07-26T20:39:38.249Z,1.50
2022-07-26T20:42:06.525Z,1.40
2022-07-26T20:44:36.091Z,1.63
2022-07-26T20:47:06.091Z,1.55
2022-07-26T20:49:32.722Z,1.58
2022-07-26T20:52:00.031Z,1.60
2022-07-26T20:54:26.575Z,1.70
2022-07-26T20:56:53.141Z,2.10
2022-07-26T20:59:19.827Z,1.40
2022-07-26T21:01:46.532Z,1.60
2022-07-26T21:04:13.257Z,1.30
2022-07-26T21:06:39.861Z,1.48
2022-07-26T21:09:09.528Z,2.42
2022-07-26T21:11:38.264Z,1.42
2022-07-26T21:14:05.071Z,1.13
2022-07-26T21:16:31.725Z,1.33
2022-07-26T21:18:58.356Z,1.38
2022-07-26T21:21:26.000Z,1.75
2022-07-26T21:23:52.625Z,1.30
2022-07-26T21:26:19.214Z,1.55
2022-07-26T21:28:45.890Z,1.90
2022-07-26T21:31:12.569Z,1.70
2022-07-26T21:33:39.124Z,2.17
2022-07-26T21:36:05.861Z,1.33
2022-07-26T21:38:33.370Z,1.98
2022-07-26T21:40:59.939Z,1.42
2022-07-26T21:43:26.683Z,1.73
2022-07-26T21:45:53.699Z,1.30
2022-07-26T21:48:21.339Z,1.15
2022-07-26T21:50:48.008Z,1.27
2022-07-26T21:53:14.759Z,1.75
2022-07-26T21:55:41.442Z,2.03
2022-07-26T21:58:08.029Z,1.55
2022-07-26T22:00:36.614Z,1.92
2022-07-26T22:03:03.732Z,1.60
2022-07-26T22:05:38.010Z,1.63
2022-07-26T22:08:09.796Z,1.90
2022-07-26T22:10:44.324Z,1.52
2022-07-26T22:13:12.033Z,1.30
2022-07-26T22:15:38.656Z,1.85
2022-07-26T22:18:05.520Z,1.50
2022-07-26T22:20:33.467Z,1.42
2022-07-26T22:23:05.870Z,1.45
2022-07-26T22:25:33.946Z,1.95
2022-07-26T22:28:01.496Z,1.38
2022-07-26T22:30:28.622Z,1.40
2022-07-26T22:32:56.438Z,2.17
2022-07-26T22:35:35.063Z,1.23
2022-07-26T22:38:05.695Z,1.52
2022-07-26T22:40:33.039Z,1.50
2022-07-26T22:42:59.930Z,1.42
2022-07-26T22:45:27.327Z,2.08
2022-07-26T22:47:56.332Z,1.30
2022-07-26T22:50:23.867Z,1.38
2022-07-26T22:52:51.927Z,1.20
2022-07-26T22:55:18.552Z,1.50
2022-07-26T22:57:45.293Z,1.70
2022-07-26T23:00:13.848Z,1.73
2022-07-26T23:02:40.651Z,1.23
2022-07-26T23:05:07.867Z,1.45
2022-07-26T23:07:35.624Z,1.52
2022-07-26T23:10:02.495Z,1.52
2022-07-26T23:12:29.367Z,1.38
2022-07-26T23:14:55.894Z,1.05
2022-07-26T23:17:22.420Z,1.05
2022-07-26T23:19:49.008Z,1.10
2022-07-26T23:22:15.522Z,1.15
2022-07-26T23:24:43.464Z,1.20
2022-07-26T23:27:10.326Z,1.48
2022-07-26T23:29:37.086Z,1.05
2022-07-26T23:32:03.723Z,1.40
2022-07-26T23:34:30.272Z,1.67
2022-07-26T23:36:56.815Z,1.73
2022-07-26T23:39:23.388Z,1.52
2022-07-26T23:41:49.945Z,1.40
2022-07-26T23:44:16.484Z,0.88
2022-07-26T23:46:43.085Z,1.60
2022-07-26T23:49:10.309Z,1.23
2022-07-26T23:51:38.749Z,1.50
2022-07-26T23:54:05.875Z,1.33
2022-07-26T23:56:32.417Z,1.35
2022-07-26T23:58:58.985Z,0.95
